createdAt,value
2023-05-09T00:00:04.907Z,10.33
2023-05-09T00:01:04.916Z,10.17
2023-05-09T00:02:05.026Z,10.93
2023-05-09T00:03:05.017Z,10.28
2023-05-09T00:04:05.190Z,9.94
2023-05-09T00:05:05.093Z,10.67
2023-05-09T00:06:05.087Z,9.76
2023-05-09T00:07:05.153Z,10.19
2023-05-09T00:08:05.144Z,10.10
2023-05-09T00:09:05.180Z,11.16
2023-05-09T00:10:05.212Z,9.75
2023-05-09T00:11:05.250Z,9.98
2023-05-09T00:12:05.282Z,9.02
2023-05-09T00:13:05.349Z,10.64
2023-05-09T00:14:05.368Z,10.57
2023-05-09T00:15:05.413Z,11.10
2023-05-09T00:16:05.424Z,9.77
2023-05-09T00:17:05.440Z,10.35
2023-05-09T00:18:05.585Z,10.60
2023-05-09T00:19:05.533Z,10.20
2023-05-09T00:20:05.658Z,9.77
2023-05-09T00:21:05.578Z,10.56
2023-05-09T00:22:05.606Z,11.14
2023-05-09T00:23:05.667Z,9.40
2023-05-09T00:24:05.698Z,11.31
2023-05-09T00:25:05.738Z,10.33
2023-05-09T00:26:05.739Z,10.85
2023-05-09T00:27:05.775Z,10.96
2023-05-09T00:28:05.859Z,9.90
2023-05-09T00:29:05.808Z,10.14
2023-05-09T00:30:05.830Z,10.18
2023-05-09T00:31:05.831Z,10.56
2023-05-09T00:32:05.900Z,9.76
2023-05-09T00:33:05.913Z,10.23
2023-05-09T00:34:05.939Z,11.16
2023-05-09T00:35:05.998Z,9.97
2023-05-09T00:36:06.102Z,10.40
2023-05-09T00:37:06.045Z,10.93
2023-05-09T00:38:06.045Z,9.70
2023-05-09T00:39:06.099Z,10.81
2023-05-09T00:40:06.143Z,9.95
2023-05-09T00:41:06.157Z,9.89
2023-05-09T00:42:06.217Z,10.65
2023-05-09T00:43:06.200Z,10.06
2023-05-09T00:44:06.287Z,11.17
2023-05-09T00:45:06.320Z,10.88
2023-05-09T00:46:06.415Z,10.29
2023-05-09T00:47:06.352Z,9.73
2023-05-09T00:48:06.491Z,10.80
2023-05-09T00:49:06.445Z,10.15
2023-05-09T00:50:06.447Z,11.14
2023-05-09T00:51:06.527Z,10.41
2023-05-09T00:52:06.615Z,10.03
2023-05-09T00:53:06.537Z,9.60
2023-05-09T00:54:09.091Z,10.78
2023-05-09T00:55:06.573Z,10.05
2023-05-09T00:56:06.599Z,10.81
2023-05-09T00:57:06.574Z,10.52
2023-05-09T00:58:06.554Z,10.07
2023-05-09T00:59:06.533Z,10.33
2023-05-09T01:00:06.577Z,10.55
2023-05-09T01:01:06.563Z,9.82
2023-05-09T01:02:06.544Z,10.70
2023-05-09T01:03:06.596Z,10.51
2023-05-09T01:04:06.516Z,9.81
2023-05-09T01:05:06.529Z,10.63
2023-05-09T01:06:06.530Z,10.69
2023-05-09T01:07:06.511Z,10.90
2023-05-09T01:08:06.589Z,10.32
2023-05-09T01:09:06.470Z,10.79
2023-05-09T01:10:06.473Z,11.51
2023-05-09T01:11:06.530Z,10.37
2023-05-09T01:12:06.464Z,10.85
2023-05-09T01:13:06.512Z,10.33
2023-05-09T01:14:06.439Z,9.78
2023-05-09T01:15:06.465Z,10.74
2023-05-09T01:16:06.491Z,11.29
2023-05-09T01:17:06.438Z,11.12
2023-05-09T01:18:06.418Z,10.50
2023-05-09T01:19:06.395Z,10.37
2023-05-09T01:20:06.408Z,10.48
2023-05-09T01:21:06.406Z,10.44
2023-05-09T01:22:06.402Z,10.82
2023-05-09T01:23:06.367Z,10.77
2023-05-09T01:24:06.468Z,10.50
2023-05-09T01:25:06.375Z,9.86
2023-05-09T01:26:06.340Z,9.74
2023-05-09T01:27:06.346Z,11.06
2023-05-09T01:28:06.345Z,10.42
2023-05-09T01:29:06.350Z,9.66
2023-05-09T01:30:06.362Z,10.31
2023-05-09T01:31:06.376Z,10.95
2023-05-09T01:32:06.326Z,10.31
2023-05-09T01:33:06.330Z,10.84
2023-05-09T01:34:06.298Z,10.16
2023-05-09T01:35:06.342Z,10.38
2023-05-09T01:36:06.273Z,11.77
2023-05-09T01:37:06.274Z,11.08
2023-05-09T01:38:06.253Z,11.12
2023-05-09T01:39:06.328Z,10.07
2023-05-09T01:40:06.350Z,10.13
2023-05-09T01:41:06.242Z,10.43
2023-05-09T01:42:06.237Z,10.83
2023-05-09T01:43:06.281Z,10.80
2023-05-09T01:44:06.275Z,10.76
2023-05-09T01:45:06.230Z,10.73
2023-05-09T01:46:06.256Z,10.65
2023-05-09T01:47:06.219Z,11.30
2023-05-09T01:48:06.239Z,10.11
2023-05-09T01:49:06.195Z,10.57
2023-05-09T01:50:06.210Z,11.30
2023-05-09T01:51:06.176Z,10.35
2023-05-09T01:52:06.192Z,10.39
2023-05-09T01:53:06.158Z,10.07
2023-05-09T01:54:06.164Z,10.22
2023-05-09T01:55:06.178Z,9.70
2023-05-09T01:56:06.294Z,10.06
2023-05-09T01:57:06.213Z,10.75
2023-05-09T01:58:06.254Z,10.21
2023-05-09T01:59:06.293Z,10.00
2023-05-09T02:00:06.354Z,10.04
2023-05-09T02:01:06.384Z,10.17
2023-05-09T02:02:06.437Z,10.52
2023-05-09T02:03:06.465Z,10.66
2023-05-09T02:04:06.469Z,9.86
2023-05-09T02:05:06.536Z,10.67
2023-05-09T02:06:06.566Z,9.29
2023-05-09T02:07:06.595Z,10.15
2023-05-09T02:08:06.645Z,9.93
2023-05-09T02:09:06.637Z,10.16
2023-05-09T02:10:06.672Z,10.69
2023-05-09T02:11:06.728Z,9.75
2023-05-09T02:12:06.824Z,10.73
2023-05-09T02:13:06.823Z,11.28
2023-05-09T02:14:06.777Z,10.55
2023-05-09T02:15:06.895Z,9.99
2023-05-09T02:16:06.885Z,10.60
2023-05-09T02:17:06.971Z,11.38
2023-05-09T02:18:06.884Z,10.27
2023-05-09T02:19:06.917Z,11.08
2023-05-09T02:20:06.945Z,10.97
2023-05-09T02:21:07.009Z,10.50
2023-05-09T02:22:07.011Z,10.47
2023-05-09T02:23:07.064Z,10.24
2023-05-09T02:24:07.063Z,10.61
2023-05-09T02:25:07.139Z,11.10
2023-05-09T02:26:07.138Z,10.77
2023-05-09T02:27:07.220Z,9.32
2023-05-09T02:28:07.337Z,10.69
2023-05-09T02:29:07.285Z,10.84
2023-05-09T02:30:07.320Z,10.56
2023-05-09T02:31:07.346Z,10.32
2023-05-09T02:32:07.466Z,10.22
2023-05-09T02:33:07.449Z,10.82
2023-05-09T02:34:07.458Z,10.53
2023-05-09T02:35:07.507Z,9.58
2023-05-09T02:36:07.544Z,10.39
2023-05-09T02:37:07.550Z,10.61
2023-05-09T02:38:07.613Z,11.30
2023-05-09T02:39:07.645Z,10.45
2023-05-09T02:40:07.695Z,10.66
2023-05-09T02:41:07.729Z,10.57
2023-05-09T02:42:07.732Z,10.85
2023-05-09T02:43:07.776Z,11.60
2023-05-09T02:44:07.914Z,10.23
2023-05-09T02:45:07.872Z,10.67
2023-05-09T02:46:07.916Z,10.58
2023-05-09T02:47:08.040Z,10.40
2023-05-09T02:48:09.009Z,10.54
2023-05-09T02:49:08.014Z,10.81
2023-05-09T02:50:08.055Z,11.49
2023-05-09T02:51:08.148Z,10.85
2023-05-09T02:52:08.099Z,10.77
2023-05-09T02:53:08.135Z,11.86
2023-05-09T02:54:08.254Z,11.55
2023-05-09T02:55:08.242Z,10.80
2023-05-09T02:56:08.228Z,11.54
2023-05-09T02:57:08.257Z,11.48
2023-05-09T02:58:14.022Z,10.86
2023-05-09T02:59:09.313Z,11.39
2023-05-09T03:00:08.397Z,11.52
2023-05-09T03:01:08.343Z,11.12
2023-05-09T03:02:08.285Z,10.87
2023-05-09T03:03:08.510Z,11.01
2023-05-09T03:04:08.242Z,11.88
2023-05-09T03:05:08.262Z,10.07
2023-05-09T03:06:08.259Z,11.27
2023-05-09T03:07:08.265Z,11.10
2023-05-09T03:08:08.220Z,11.18
2023-05-09T03:09:08.251Z,11.55
2023-05-09T03:10:08.260Z,11.14
2023-05-09T03:11:08.229Z,11.20
2023-05-09T03:12:08.242Z,10.76
2023-05-09T03:13:08.322Z,11.42
2023-05-09T03:14:08.330Z,11.27
2023-05-09T03:15:08.359Z,10.58
2023-05-09T03:16:08.514Z,10.93
2023-05-09T03:17:08.426Z,11.27
2023-05-09T03:18:08.555Z,11.11
2023-05-09T03:19:08.503Z,11.86
2023-05-09T03:20:08.506Z,10.91
2023-05-09T03:21:08.548Z,11.64
2023-05-09T03:22:08.629Z,11.69
2023-05-09T03:23:08.614Z,11.92
2023-05-09T03:24:08.678Z,11.65
2023-05-09T03:25:08.723Z,11.82
2023-05-09T03:26:08.739Z,12.18
2023-05-09T03:27:08.795Z,12.15
2023-05-09T03:28:08.830Z,11.31
2023-05-09T03:29:08.866Z,11.77
2023-05-09T03:30:08.934Z,11.48
2023-05-09T03:31:09.068Z,11.39
2023-05-09T03:32:09.044Z,11.46
2023-05-09T03:33:09.027Z,11.58
2023-05-09T03:34:09.054Z,11.51
2023-05-09T03:35:09.059Z,10.18
2023-05-09T03:36:09.114Z,11.15
2023-05-09T03:37:09.150Z,10.97
2023-05-09T03:38:09.160Z,11.55
2023-05-09T03:39:09.250Z,11.72
2023-05-09T03:40:09.247Z,11.77
2023-05-09T03:41:09.315Z,10.70
2023-05-09T03:42:09.318Z,11.07
2023-05-09T03:43:09.352Z,11.41
2023-05-09T03:44:09.376Z,11.44
2023-05-09T03:45:09.429Z,11.69
2023-05-09T03:46:09.479Z,12.59
2023-05-09T03:47:09.485Z,12.48
2023-05-09T03:48:09.729Z,11.40
2023-05-09T03:49:09.581Z,11.06
2023-05-09T03:50:09.618Z,11.02
2023-05-09T03:51:09.683Z,11.05
2023-05-09T03:52:09.728Z,11.40
2023-05-09T03:53:09.739Z,11.58
2023-05-09T03:54:09.786Z,11.58
2023-05-09T03:55:09.809Z,11.12
2023-05-09T03:56:09.882Z,11.76
2023-05-09T03:57:09.881Z,12.13
2023-05-09T03:58:09.925Z,11.50
2023-05-09T03:59:09.960Z,11.69
2023-05-09T04:00:10.012Z,10.70
2023-05-09T04:01:10.058Z,11.15
2023-05-09T04:02:10.117Z,11.25
2023-05-09T04:03:10.346Z,11.50
2023-05-09T04:04:10.342Z,11.89
2023-05-09T04:05:10.179Z,10.67
2023-05-09T04:06:10.246Z,11.58
2023-05-09T04:07:10.242Z,11.49
2023-05-09T04:08:10.309Z,10.19
2023-05-09T04:09:10.341Z,10.18
2023-05-09T04:10:10.326Z,11.09
2023-05-09T04:11:10.349Z,11.32
2023-05-09T04:12:10.388Z,11.22
2023-05-09T04:13:10.484Z,10.79
2023-05-09T04:14:10.460Z,11.34
2023-05-09T04:15:10.463Z,10.84
2023-05-09T04:16:10.511Z,9.77
2023-05-09T04:17:10.559Z,11.75
2023-05-09T04:18:10.608Z,10.86
2023-05-09T04:19:10.631Z,11.06
2023-05-09T04:20:10.773Z,11.40
2023-05-09T04:21:10.716Z,11.38
2023-05-09T04:22:10.752Z,11.85
2023-05-09T04:23:10.775Z,11.22
2023-05-09T04:24:10.811Z,11.52
2023-05-09T04:25:10.830Z,10.84
2023-05-09T04:26:10.901Z,10.87
2023-05-09T04:27:10.925Z,10.71
2023-05-09T04:28:10.993Z,10.99
2023-05-09T04:29:11.008Z,10.43
2023-05-09T04:30:11.060Z,11.27
2023-05-09T04:31:11.204Z,11.64
2023-05-09T04:32:11.182Z,11.20
2023-05-09T04:33:11.159Z,11.22
2023-05-09T04:34:11.185Z,11.05
2023-05-09T04:35:11.283Z,11.60
2023-05-09T04:36:11.379Z,10.71
2023-05-09T04:37:11.293Z,10.86
2023-05-09T04:38:11.366Z,11.99
2023-05-09T04:39:11.373Z,11.79
2023-05-09T04:40:11.436Z,11.01
2023-05-09T04:41:11.453Z,11.31
2023-05-09T04:42:11.527Z,12.37
2023-05-09T04:43:11.545Z,10.30
2023-05-09T04:44:11.570Z,10.79
2023-05-09T04:45:11.806Z,11.74
2023-05-09T04:46:11.673Z,11.01
2023-05-09T04:47:11.692Z,11.74
2023-05-09T04:48:11.712Z,12.02
2023-05-09T04:49:11.764Z,11.98
2023-05-09T04:50:11.830Z,11.52
2023-05-09T04:51:11.886Z,11.50
2023-05-09T04:52:11.969Z,11.28
2023-05-09T04:53:11.951Z,11.00
2023-05-09T04:54:11.979Z,10.69
2023-05-09T04:55:12.040Z,11.54
2023-05-09T04:56:12.061Z,11.31
2023-05-09T04:57:17.764Z,11.38
2023-05-09T04:58:13.071Z,11.59
2023-05-09T04:59:12.074Z,11.82
2023-05-09T05:00:12.087Z,10.77
2023-05-09T05:01:19.245Z,11.04
2023-05-09T05:02:12.074Z,11.79
2023-05-09T05:03:12.083Z,10.76
2023-05-09T05:04:12.076Z,10.59
2023-05-09T05:05:12.692Z,11.29
2023-05-09T05:06:12.051Z,10.35
2023-05-09T05:07:12.012Z,11.54
2023-05-09T05:08:12.097Z,11.57
2023-05-09T05:09:12.023Z,10.79
2023-05-09T05:10:12.033Z,11.07
2023-05-09T05:11:11.985Z,12.22
2023-05-09T05:12:11.988Z,11.26
2023-05-09T05:13:12.047Z,12.03
2023-05-09T05:14:11.987Z,11.30
2023-05-09T05:15:12.048Z,11.29
2023-05-09T05:16:12.063Z,10.81
2023-05-09T05:17:11.986Z,10.73
2023-05-09T05:18:11.946Z,11.65
2023-05-09T05:19:11.940Z,10.36
2023-05-09T05:20:11.948Z,10.90
2023-05-09T05:21:11.949Z,10.46
2023-05-09T05:22:11.948Z,9.56
2023-05-09T05:23:11.920Z,11.23
2023-05-09T05:24:11.997Z,10.33
2023-05-09T05:25:11.893Z,10.98
2023-05-09T05:26:11.867Z,11.29
2023-05-09T05:27:11.930Z,10.68
2023-05-09T05:28:11.969Z,10.21
2023-05-09T05:29:11.953Z,9.74
2023-05-09T05:30:12.000Z,10.71
2023-05-09T05:31:12.094Z,10.26
2023-05-09T05:32:12.228Z,10.51
2023-05-09T05:33:12.138Z,11.02
2023-05-09T05:34:12.130Z,9.88
2023-05-09T05:35:12.371Z,10.91
2023-05-09T05:36:12.227Z,11.62
2023-05-09T05:37:12.728Z,10.67
2023-05-09T05:38:12.329Z,11.06
2023-05-09T05:39:12.332Z,10.96
2023-05-09T05:40:12.428Z,11.08
2023-05-09T05:41:12.383Z,11.96
2023-05-09T05:42:12.754Z,11.82
2023-05-09T05:43:12.443Z,11.75
2023-05-09T05:44:12.453Z,11.29
2023-05-09T05:45:12.596Z,11.76
2023-05-09T05:46:20.010Z,11.66
2023-05-09T05:47:12.459Z,15.76
2023-05-09T05:48:12.506Z,18.11
2023-05-09T05:49:12.423Z,17.97
2023-05-09T05:50:12.433Z,19.32
2023-05-09T05:51:12.394Z,18.33
2023-05-09T05:52:12.404Z,20.25
2023-05-09T05:53:12.423Z,19.40
2023-05-09T05:54:12.398Z,19.92
2023-05-09T05:55:12.525Z,18.24
2023-05-09T05:56:12.415Z,18.76
2023-05-09T05:57:12.369Z,19.52
2023-05-09T05:58:12.384Z,18.75
2023-05-09T05:59:13.540Z,20.09
2023-05-09T06:00:12.362Z,18.05
2023-05-09T06:01:12.342Z,19.24
2023-05-09T06:02:12.792Z,19.04
2023-05-09T06:03:12.491Z,17.98
2023-05-09T06:04:12.366Z,17.53
2023-05-09T06:05:12.431Z,19.49
2023-05-09T06:06:12.348Z,18.72
2023-05-09T06:07:12.747Z,18.49
2023-05-09T06:08:12.312Z,18.86
2023-05-09T06:09:12.289Z,18.18
2023-05-09T06:10:12.297Z,17.42
2023-05-09T06:11:12.312Z,17.19
2023-05-09T06:12:12.722Z,17.31
2023-05-09T06:13:12.257Z,16.17
2023-05-09T06:14:12.249Z,15.16
2023-05-09T06:15:12.525Z,17.03
2023-05-09T06:16:19.363Z,14.58
2023-05-09T06:17:13.437Z,13.99
2023-05-09T06:18:12.406Z,15.17
2023-05-09T06:19:12.317Z,14.14
2023-05-09T06:20:12.288Z,14.61
2023-05-09T06:21:12.297Z,14.81
2023-05-09T06:22:12.302Z,14.35
2023-05-09T06:23:12.298Z,14.55
2023-05-09T06:24:23.506Z,13.39
2023-05-09T06:25:13.484Z,16.08
2023-05-09T06:26:12.262Z,14.25
2023-05-09T06:27:12.280Z,13.63
2023-05-09T06:28:12.235Z,14.30
2023-05-09T06:29:12.281Z,14.49
2023-05-09T06:30:24.686Z,14.67
2023-05-09T06:31:13.268Z,14.43
2023-05-09T06:32:12.257Z,15.35
2023-05-09T06:33:12.253Z,15.14
2023-05-09T06:34:12.724Z,14.71
2023-05-09T06:35:12.326Z,14.49
2023-05-09T06:36:12.202Z,14.44
2023-05-09T06:37:12.197Z,15.00
2023-05-09T06:38:12.182Z,13.88
2023-05-09T06:39:12.209Z,14.06
2023-05-09T06:40:12.200Z,13.86
2023-05-09T06:41:12.152Z,14.26
2023-05-09T06:42:12.172Z,14.48
2023-05-09T06:43:12.150Z,14.44
2023-05-09T06:44:12.266Z,14.69
2023-05-09T06:45:12.254Z,14.04
2023-05-09T06:46:12.172Z,12.99
2023-05-09T06:47:12.214Z,14.02
2023-05-09T06:48:12.321Z,14.18
2023-05-09T06:49:12.264Z,13.73
2023-05-09T06:50:12.278Z,13.52
2023-05-09T06:51:12.337Z,12.94
2023-05-09T06:52:12.378Z,15.00
2023-05-09T06:53:12.354Z,14.52
2023-05-09T06:54:12.461Z,13.90
2023-05-09T06:55:12.547Z,13.71
2023-05-09T06:56:12.478Z,14.16
2023-05-09T06:57:12.523Z,13.21
2023-05-09T06:58:12.597Z,14.28
2023-05-09T06:59:12.635Z,13.06
2023-05-09T07:00:12.748Z,15.05
2023-05-09T07:01:12.699Z,14.42
2023-05-09T07:02:12.771Z,14.17
2023-05-09T07:03:13.260Z,13.97
2023-05-09T07:04:12.850Z,14.70
2023-05-09T07:05:13.065Z,14.35
2023-05-09T07:06:12.942Z,14.40
2023-05-09T07:07:13.012Z,14.34
2023-05-09T07:08:13.055Z,13.94
2023-05-09T07:09:13.120Z,14.05
2023-05-09T07:10:13.278Z,14.91
2023-05-09T07:11:13.247Z,13.90
2023-05-09T07:12:13.295Z,14.12
2023-05-09T07:13:13.823Z,13.90
2023-05-09T07:14:13.419Z,14.72
2023-05-09T07:15:13.881Z,13.38
2023-05-09T07:16:13.656Z,14.25
2023-05-09T07:17:22.949Z,14.24
2023-05-09T07:18:14.643Z,13.06
2023-05-09T07:19:13.581Z,14.23
2023-05-09T07:20:13.587Z,13.41
2023-05-09T07:21:13.570Z,13.10
2023-05-09T07:22:13.687Z,13.33
2023-05-09T07:23:13.779Z,12.65
2023-05-09T07:24:13.541Z,11.86
2023-05-09T07:25:13.685Z,12.44
2023-05-09T07:26:13.526Z,11.88
2023-05-09T07:27:13.564Z,11.01
2023-05-09T07:28:13.795Z,10.64
2023-05-09T07:29:13.528Z,11.09
2023-05-09T07:30:13.771Z,11.16
2023-05-09T07:31:13.488Z,11.10
2023-05-09T07:32:13.702Z,10.78
2023-05-09T07:33:13.845Z,10.63
2023-05-09T07:34:13.564Z,13.46
2023-05-09T07:35:13.742Z,13.74
2023-05-09T07:36:13.609Z,14.18
2023-05-09T07:37:14.591Z,13.52
2023-05-09T07:38:13.713Z,14.63
2023-05-09T07:39:13.790Z,14.83
2023-05-09T07:40:13.781Z,14.25
2023-05-09T07:41:13.609Z,15.43
2023-05-09T07:42:13.576Z,14.33
2023-05-09T07:43:13.585Z,14.24
2023-05-09T07:44:13.793Z,12.87
2023-05-09T07:45:13.792Z,13.04
2023-05-09T07:46:13.592Z,10.85
2023-05-09T07:47:13.528Z,11.43
2023-05-09T07:48:13.616Z,11.07
2023-05-09T07:49:13.779Z,10.99
2023-05-09T07:50:13.512Z,9.70
2023-05-09T07:51:13.514Z,9.51
2023-05-09T07:52:13.509Z,10.05
2023-05-09T07:53:13.502Z,8.29
2023-05-09T07:54:13.499Z,8.71
2023-05-09T07:55:13.644Z,8.98
2023-05-09T07:56:13.524Z,8.76
2023-05-09T07:57:13.463Z,8.78
2023-05-09T07:58:13.474Z,8.35
2023-05-09T07:59:13.453Z,8.01
2023-05-09T08:00:13.456Z,7.74
2023-05-09T08:01:13.427Z,7.91
2023-05-09T08:02:13.498Z,6.78
2023-05-09T08:03:13.513Z,6.43
2023-05-09T08:04:13.613Z,6.69
2023-05-09T08:05:13.918Z,7.25
2023-05-09T08:06:13.427Z,6.49
2023-05-09T08:07:13.414Z,6.90
2023-05-09T08:08:13.413Z,7.02
2023-05-09T08:09:13.806Z,6.44
2023-05-09T08:10:13.415Z,6.13
2023-05-09T08:11:13.399Z,5.96
2023-05-09T08:12:13.407Z,6.44
2023-05-09T08:13:13.428Z,6.09
2023-05-09T08:14:15.505Z,6.38
2023-05-09T08:15:13.588Z,5.92
2023-05-09T08:16:13.372Z,6.16
2023-05-09T08:17:13.382Z,6.03
2023-05-09T08:18:13.384Z,6.46
2023-05-09T08:19:13.799Z,5.48
2023-05-09T08:20:13.512Z,6.23
2023-05-09T08:21:13.472Z,6.31
2023-05-09T08:22:13.477Z,5.59
2023-05-09T08:23:13.509Z,5.81
2023-05-09T08:24:13.794Z,5.81
2023-05-09T08:25:13.808Z,6.15
2023-05-09T08:26:13.563Z,5.33
2023-05-09T08:27:13.613Z,5.04
2023-05-09T08:28:13.629Z,5.65
2023-05-09T08:29:13.833Z,5.37
2023-05-09T08:30:13.656Z,5.81
2023-05-09T08:31:13.696Z,6.16
2023-05-09T08:32:13.688Z,6.71
2023-05-09T08:33:13.741Z,6.55
2023-05-09T08:34:13.827Z,10.35
2023-05-09T08:35:14.658Z,12.36
2023-05-09T08:36:13.839Z,11.23
2023-05-09T08:37:15.209Z,10.02
2023-05-09T08:38:13.750Z,10.01
2023-05-09T08:39:13.794Z,10.03
2023-05-09T08:40:13.902Z,10.21
2023-05-09T08:41:13.816Z,10.77
2023-05-09T08:42:13.820Z,9.95
2023-05-09T08:43:13.835Z,10.36
2023-05-09T08:44:14.346Z,10.34
2023-05-09T08:45:13.872Z,9.89
2023-05-09T08:46:13.981Z,9.59
2023-05-09T08:47:13.917Z,9.98
2023-05-09T08:48:13.972Z,9.90
2023-05-09T08:49:13.966Z,9.01
2023-05-09T08:50:14.280Z,9.22
2023-05-09T08:51:14.250Z,9.97
2023-05-09T08:52:14.125Z,10.13
2023-05-09T08:53:14.088Z,10.73
2023-05-09T08:54:14.305Z,10.12
2023-05-09T08:55:14.137Z,9.31
2023-05-09T08:56:14.194Z,9.55
2023-05-09T08:57:14.192Z,9.34
2023-05-09T08:58:14.182Z,8.87
2023-05-09T08:59:14.176Z,9.83
2023-05-09T09:00:15.480Z,9.88
2023-05-09T09:01:14.258Z,8.64
2023-05-09T09:02:14.266Z,8.47
2023-05-09T09:03:14.332Z,9.00
2023-05-09T09:04:14.922Z,9.44
2023-05-09T09:05:34.165Z,8.14
2023-05-09T09:06:15.384Z,7.89
2023-05-09T09:07:14.379Z,8.16
2023-05-09T09:08:14.470Z,7.84
2023-05-09T09:09:14.419Z,8.76
2023-05-09T09:10:15.084Z,7.91
2023-05-09T09:11:14.357Z,8.58
2023-05-09T09:12:14.331Z,8.02
2023-05-09T09:13:14.336Z,9.31
2023-05-09T09:14:14.342Z,8.04
2023-05-09T09:15:14.306Z,7.37
2023-05-09T09:16:14.380Z,8.36
2023-05-09T09:17:14.416Z,7.21
2023-05-09T09:18:14.466Z,7.62
2023-05-09T09:19:15.299Z,7.37
2023-05-09T09:20:15.014Z,7.31
2023-05-09T09:21:14.631Z,7.34
2023-05-09T09:22:14.626Z,6.50
2023-05-09T09:23:14.701Z,6.10
2023-05-09T09:24:14.796Z,6.61
2023-05-09T09:25:14.728Z,6.04
2023-05-09T09:26:14.767Z,6.44
2023-05-09T09:27:14.773Z,6.32
2023-05-09T09:28:14.841Z,6.48
2023-05-09T09:29:14.856Z,5.47
2023-05-09T09:30:15.489Z,5.23
2023-05-09T09:31:16.018Z,5.45
2023-05-09T09:32:14.984Z,4.81
2023-05-09T09:33:14.950Z,4.80
2023-05-09T09:34:15.032Z,4.70
2023-05-09T09:35:15.109Z,4.94
2023-05-09T09:36:15.223Z,4.13
2023-05-09T09:37:15.158Z,4.61
2023-05-09T09:38:15.209Z,4.58
2023-05-09T09:39:15.364Z,4.90
2023-05-09T09:40:15.621Z,4.67
2023-05-09T09:41:15.368Z,4.83
2023-05-09T09:42:15.464Z,5.21
2023-05-09T09:43:15.518Z,4.46
2023-05-09T09:44:15.558Z,5.47
2023-05-09T09:45:15.909Z,5.08
2023-05-09T09:46:15.709Z,5.32
2023-05-09T09:47:15.670Z,5.42
2023-05-09T09:48:16.433Z,5.83
2023-05-09T09:49:15.771Z,5.47
2023-05-09T09:50:16.071Z,5.80
2023-05-09T09:51:15.822Z,5.02
2023-05-09T09:52:15.812Z,5.47
2023-05-09T09:53:15.934Z,5.05
2023-05-09T09:54:15.987Z,5.27
2023-05-09T09:55:16.044Z,4.94
2023-05-09T09:56:16.168Z,4.41
2023-05-09T09:57:16.161Z,4.87
2023-05-09T09:58:16.235Z,5.26
2023-05-09T09:59:16.245Z,4.72
2023-05-09T10:00:16.736Z,3.94
2023-05-09T10:01:16.475Z,4.61
2023-05-09T10:02:16.468Z,4.51
2023-05-09T10:03:16.798Z,4.30
2023-05-09T10:04:16.728Z,4.39
2023-05-09T10:05:16.650Z,4.30
2023-05-09T10:06:16.673Z,4.72
2023-05-09T10:07:16.695Z,4.03
2023-05-09T10:08:17.409Z,4.21
2023-05-09T10:09:16.893Z,4.77
2023-05-09T10:10:17.146Z,4.22
2023-05-09T10:11:16.941Z,4.67
2023-05-09T10:12:17.119Z,4.36
2023-05-09T10:13:17.171Z,4.46
2023-05-09T10:14:17.218Z,3.97
2023-05-09T10:15:17.211Z,3.94
2023-05-09T10:16:19.516Z,3.70
2023-05-09T10:17:18.335Z,3.91
2023-05-09T10:18:17.432Z,4.09
2023-05-09T10:19:17.334Z,4.21
2023-05-09T10:20:17.367Z,3.91
2023-05-09T10:21:17.252Z,3.68
2023-05-09T10:22:17.196Z,4.00
2023-05-09T10:23:17.190Z,3.60
2023-05-09T10:24:17.209Z,3.35
2023-05-09T10:25:17.398Z,3.81
2023-05-09T10:26:17.277Z,3.76
2023-05-09T10:27:17.393Z,3.43
2023-05-09T10:28:17.453Z,3.40
2023-05-09T10:29:17.441Z,3.71
2023-05-09T10:30:17.576Z,3.09
2023-05-09T10:31:17.645Z,3.22
2023-05-09T10:32:17.641Z,3.05
2023-05-09T10:33:17.698Z,3.44
2023-05-09T10:34:17.785Z,3.22
2023-05-09T10:35:17.944Z,2.89
2023-05-09T10:36:17.874Z,3.69
2023-05-09T10:37:17.974Z,3.13
2023-05-09T10:38:17.991Z,2.84
2023-05-09T10:39:18.045Z,3.20
2023-05-09T10:40:18.441Z,3.68
2023-05-09T10:41:18.135Z,3.89
2023-05-09T10:42:18.156Z,3.91
2023-05-09T10:43:18.141Z,4.10
2023-05-09T10:44:18.255Z,3.90
2023-05-09T10:45:18.392Z,3.24
2023-05-09T10:46:18.290Z,3.70
2023-05-09T10:47:18.248Z,3.05
2023-05-09T10:48:18.244Z,3.36
2023-05-09T10:49:18.296Z,3.30
2023-05-09T10:50:18.332Z,3.11
2023-05-09T10:51:18.417Z,2.94
2023-05-09T10:52:18.475Z,3.01
2023-05-09T10:53:18.538Z,3.34
2023-05-09T10:54:18.595Z,3.27
2023-05-09T10:55:18.664Z,3.13
2023-05-09T10:56:18.717Z,3.19
2023-05-09T10:57:18.752Z,3.09
2023-05-09T10:58:18.772Z,2.55
2023-05-09T10:59:18.825Z,2.75
2023-05-09T11:00:18.928Z,2.49
2023-05-09T11:01:18.855Z,2.75
2023-05-09T11:02:18.848Z,3.01
2023-05-09T11:03:18.923Z,2.88
2023-05-09T11:04:18.908Z,2.60
2023-05-09T11:05:19.028Z,2.81
2023-05-09T11:06:19.087Z,2.42
2023-05-09T11:07:19.188Z,2.81
2023-05-09T11:08:19.251Z,2.71
2023-05-09T11:09:19.347Z,2.65
2023-05-09T11:10:19.431Z,2.52
2023-05-09T11:11:19.472Z,3.05
2023-05-09T11:12:19.562Z,2.63
2023-05-09T11:13:19.669Z,2.54
2023-05-09T11:14:19.687Z,2.65
2023-05-09T11:15:19.735Z,2.42
2023-05-09T11:16:19.885Z,2.45
2023-05-09T11:17:19.894Z,3.21
2023-05-09T11:18:19.893Z,2.87
2023-05-09T11:19:19.996Z,2.53
2023-05-09T11:20:20.077Z,2.55
2023-05-09T11:21:20.106Z,2.34
2023-05-09T11:22:20.160Z,2.23
2023-05-09T11:23:20.179Z,2.05
2023-05-09T11:24:20.207Z,2.15
2023-05-09T11:25:20.242Z,2.44
2023-05-09T11:26:20.357Z,2.23
2023-05-09T11:27:20.374Z,2.21
2023-05-09T11:28:20.406Z,2.25
2023-05-09T11:29:20.485Z,2.36
2023-05-09T11:30:20.509Z,2.61
2023-05-09T11:31:20.913Z,2.73
2023-05-09T11:32:20.677Z,3.21
2023-05-09T11:33:20.622Z,2.54
2023-05-09T11:34:20.675Z,3.36
2023-05-09T11:35:20.735Z,2.19
2023-05-09T11:36:21.892Z,2.07
2023-05-09T11:37:20.893Z,1.93
2023-05-09T11:38:20.905Z,2.00
2023-05-09T11:39:20.964Z,1.88
2023-05-09T11:40:20.993Z,2.31
2023-05-09T11:41:20.979Z,1.75
2023-05-09T11:42:20.981Z,2.23
2023-05-09T11:43:21.075Z,2.06
2023-05-09T11:44:21.149Z,2.11
2023-05-09T11:45:21.207Z,1.91
2023-05-09T11:46:21.289Z,2.74
2023-05-09T11:47:21.361Z,1.82
2023-05-09T11:48:21.457Z,1.95
2023-05-09T11:49:21.458Z,1.94
2023-05-09T11:50:21.498Z,2.01
2023-05-09T11:51:21.570Z,1.82
2023-05-09T11:52:21.654Z,1.61
2023-05-09T11:53:21.686Z,1.60
2023-05-09T11:54:21.715Z,1.84
2023-05-09T11:55:21.797Z,2.10
2023-05-09T11:56:21.794Z,1.88
2023-05-09T11:57:21.826Z,1.95
2023-05-09T11:58:21.772Z,2.46
2023-05-09T11:59:21.771Z,1.48
2023-05-09T12:00:21.835Z,1.83
2023-05-09T12:01:21.819Z,1.94
2023-05-09T12:02:21.844Z,1.95
2023-05-09T12:03:21.935Z,1.81
2023-05-09T12:04:22.002Z,1.49
2023-05-09T12:05:21.861Z,1.83
2023-05-09T12:06:21.898Z,1.54
2023-05-09T12:07:21.912Z,1.78
2023-05-09T12:08:21.911Z,1.54
2023-05-09T12:09:21.898Z,1.53
2023-05-09T12:10:21.922Z,1.51
2023-05-09T12:11:21.905Z,2.25
2023-05-09T12:12:21.997Z,1.59
2023-05-09T12:13:22.108Z,1.80
2023-05-09T12:14:22.183Z,1.39
2023-05-09T12:15:22.450Z,1.45
2023-05-09T12:16:22.201Z,1.58
2023-05-09T12:17:22.305Z,1.26
2023-05-09T12:18:22.244Z,1.97
2023-05-09T12:19:22.238Z,1.42
2023-05-09T12:20:22.279Z,1.69
2023-05-09T12:21:22.360Z,1.30
2023-05-09T12:22:22.231Z,1.29
2023-05-09T12:23:22.348Z,1.73
2023-05-09T12:24:22.450Z,1.81
2023-05-09T12:25:22.571Z,1.44
2023-05-09T12:26:22.682Z,1.28
2023-05-09T12:27:22.780Z,1.21
2023-05-09T12:28:22.845Z,1.17
2023-05-09T12:29:22.888Z,1.21
2023-05-09T12:30:22.874Z,1.22
2023-05-09T12:31:22.896Z,1.97
2023-05-09T12:32:22.917Z,1.65
2023-05-09T12:33:22.974Z,1.38
2023-05-09T12:34:23.010Z,1.55
2023-05-09T12:35:23.068Z,1.64
2023-05-09T12:36:23.253Z,1.40
2023-05-09T12:37:23.154Z,1.84
2023-05-09T12:38:23.297Z,1.18
2023-05-09T12:39:23.265Z,1.45
2023-05-09T12:40:23.229Z,1.53
2023-05-09T12:41:37.095Z,1.65
2023-05-09T12:42:24.267Z,1.72
2023-05-09T12:43:23.259Z,1.63
2023-05-09T12:44:23.239Z,1.53
2023-05-09T12:45:23.211Z,1.52
2023-05-09T12:46:23.358Z,1.35
2023-05-09T12:47:23.227Z,1.46
2023-05-09T12:48:23.200Z,1.47
2023-05-09T12:49:23.198Z,1.45
2023-05-09T12:50:23.193Z,1.49
2023-05-09T12:51:23.207Z,1.40
2023-05-09T12:52:23.248Z,1.90
2023-05-09T12:53:23.194Z,1.40
2023-05-09T12:54:23.179Z,1.49
2023-05-09T12:55:23.183Z,1.12
2023-05-09T12:56:23.150Z,1.65
2023-05-09T12:57:23.159Z,1.61
2023-05-09T12:58:23.159Z,1.47
2023-05-09T12:59:23.151Z,1.30
2023-05-09T13:00:23.100Z,1.21
2023-05-09T13:01:23.175Z,1.66
2023-05-09T13:02:23.226Z,1.16
2023-05-09T13:03:23.195Z,1.56